createdAt,value
2018-12-06T08:32:11.797Z,99.99
2018-12-06T08:33:11.775Z,99.99
2018-12-06T08:34:11.774Z,99.99
2018-12-06T08:35:11.756Z,99.99
2018-12-06T08:36:11.744Z,99.99
2018-12-06T08:37:11.730Z,99.99
2018-12-06T08:38:12.376Z,99.99
2018-12-06T08:39:11.719Z,99.99
2018-12-06T08:40:11.696Z,99.99
2018-12-06T08:41:11.685Z,99.99
2018-12-06T08:42:11.678Z,99.99
2018-12-06T08:43:11.673Z,99.99
2018-12-06T08:44:11.680Z,99.99
2018-12-06T08:45:11.659Z,99.99
2018-12-06T08:46:11.636Z,99.99
2018-12-06T08:47:11.618Z,99.99
2018-12-06T08:48:11.635Z,99.79
2018-12-06T08:49:11.612Z,99.99
2018-12-06T08:50:11.612Z,99.99
2018-12-06T08:51:11.572Z,99.99
2018-12-06T08:52:11.560Z,99.68
2018-12-06T08:53:11.579Z,99.99
2018-12-06T08:54:11.628Z,99.58
2018-12-06T08:55:11.549Z,99.99
2018-12-06T08:56:11.541Z,99.48
2018-12-06T08:57:11.542Z,99.89
2018-12-06T08:58:11.493Z,99.95
2018-12-06T08:59:11.497Z,99.74
2018-12-06T09:00:11.479Z,99.48
2018-12-06T09:01:11.466Z,99.58
2018-12-06T09:02:11.450Z,98.96
2018-12-06T09:03:11.443Z,98.96
2018-12-06T09:04:11.440Z,99.38
2018-12-06T09:05:11.439Z,99.22
2018-12-06T09:06:11.405Z,99.02
2018-12-06T09:07:11.392Z,99.48
2018-12-06T09:08:11.384Z,99.33
2018-12-06T09:09:11.381Z,99.54
2018-12-06T09:10:11.374Z,99.12
2018-12-06T09:11:11.360Z,99.63
2018-12-06T09:12:11.358Z,99.22
2018-12-06T09:13:11.338Z,99.12
2018-12-06T09:14:11.328Z,99.79
2018-12-06T09:15:11.305Z,99.08
2018-12-06T09:16:11.293Z,98.97
2018-12-06T09:17:11.289Z,98.82
2018-12-06T09:18:11.271Z,98.61
2018-12-06T09:19:11.277Z,98.36
2018-12-06T09:20:11.248Z,98.67
2018-12-06T09:21:11.245Z,99.18
2018-12-06T09:22:11.232Z,98.36
2018-12-06T09:23:11.214Z,98.57
2018-12-06T09:24:11.220Z,97.95
2018-12-06T09:25:11.206Z,98.16
2018-12-06T09:26:11.181Z,98.25
2018-12-06T09:27:11.171Z,98.36
2018-12-06T09:28:11.168Z,98.16
2018-12-06T09:29:11.174Z,97.85
2018-12-06T09:30:11.136Z,97.54
2018-12-06T09:31:11.126Z,97.85
2018-12-06T09:32:11.113Z,97.85
2018-12-06T09:33:11.103Z,98.16
2018-12-06T09:34:11.103Z,98.36
2018-12-06T09:35:11.102Z,98.05
2018-12-06T09:36:11.069Z,97.39
2018-12-06T09:37:11.061Z,97.49
2018-12-06T09:38:11.050Z,98.00
2018-12-06T09:39:11.089Z,97.60
2018-12-06T09:40:11.025Z,97.70
2018-12-06T09:41:11.013Z,97.29
2018-12-06T09:42:11.007Z,97.49
2018-12-06T09:43:11.018Z,97.65
2018-12-06T09:44:11.001Z,98.27
2018-12-06T09:45:10.979Z,97.55
2018-12-06T09:46:10.963Z,97.34
2018-12-06T09:47:10.945Z,97.55
2018-12-06T09:48:10.941Z,98.27
2018-12-06T09:49:10.940Z,97.86
2018-12-06T09:50:10.919Z,96.73
2018-12-06T09:51:10.898Z,97.04
2018-12-06T09:52:10.888Z,97.45
2018-12-06T09:53:10.877Z,97.34
2018-12-06T09:54:10.867Z,97.34
2018-12-06T09:55:10.864Z,97.40
2018-12-06T09:56:10.841Z,97.34
2018-12-06T09:57:10.831Z,96.89
2018-12-06T09:58:10.825Z,97.50
2018-12-06T09:59:10.815Z,96.94
2018-12-06T10:00:10.824Z,96.89
2018-12-06T10:01:10.796Z,96.94
2018-12-06T10:02:10.772Z,96.79
2018-12-06T10:03:10.770Z,96.58
2018-12-06T10:04:10.779Z,96.89
2018-12-06T10:05:10.756Z,96.89
2018-12-06T10:06:10.730Z,97.20
2018-12-06T10:07:10.715Z,96.99
2018-12-06T10:08:10.721Z,96.58
2018-12-06T10:09:10.695Z,97.20
2018-12-06T10:10:10.691Z,97.30
2018-12-06T10:11:10.675Z,96.89
2018-12-06T10:12:10.665Z,97.40
2018-12-06T10:13:10.647Z,97.61
2018-12-06T10:14:10.663Z,97.30
2018-12-06T10:15:10.695Z,96.89
2018-12-06T10:16:10.640Z,96.79
2018-12-06T10:17:10.603Z,96.89
2018-12-06T10:18:10.592Z,96.69
2018-12-06T10:19:10.586Z,97.40
2018-12-06T10:20:10.591Z,97.40
2018-12-06T10:21:10.570Z,97.30
2018-12-06T10:22:10.562Z,97.30
2018-12-06T10:23:10.534Z,97.30
2018-12-06T10:24:10.525Z,96.99
2018-12-06T10:25:10.523Z,96.79
2018-12-06T10:26:10.518Z,97.20
2018-12-06T10:27:10.488Z,97.30
2018-12-06T10:28:10.480Z,97.09
2018-12-06T10:29:10.473Z,97.09
2018-12-06T10:30:10.466Z,96.89
2018-12-06T10:31:10.446Z,97.50
2018-12-06T10:32:10.440Z,96.58
2018-12-06T10:33:10.419Z,96.79
2018-12-06T10:34:10.414Z,97.50
2018-12-06T10:35:10.414Z,97.40
2018-12-06T10:36:10.387Z,97.40
2018-12-06T10:37:10.385Z,97.40
2018-12-06T10:38:10.367Z,97.50
2018-12-06T10:39:10.350Z,97.30
2018-12-06T10:40:10.350Z,97.91
2018-12-06T10:43:28.056Z,97.71
2018-12-06T10:44:28.038Z,97.71
2018-12-06T10:45:28.038Z,97.71
2018-12-06T10:49:54.940Z,97.56
2018-12-06T10:50:54.697Z,96.79
2018-12-06T10:51:54.677Z,96.79
2018-12-06T10:52:54.663Z,96.58
2018-12-06T10:53:54.650Z,96.79
2018-12-06T10:54:54.640Z,97.15
2018-12-06T10:55:54.642Z,96.74
2018-12-06T10:56:54.712Z,96.84
2018-12-06T10:57:54.604Z,97.46
2018-12-06T10:58:54.606Z,96.95
2018-12-06T10:59:54.585Z,96.44
2018-12-06T11:00:57.421Z,96.89
2018-12-06T11:04:12.263Z,96.99
2018-12-06T11:05:12.251Z,96.84
2018-12-06T11:06:12.253Z,96.95
2018-12-06T11:07:12.229Z,97.46
2018-12-06T11:08:12.219Z,97.40
2018-12-06T11:09:12.208Z,97.46
2018-12-06T11:10:12.196Z,97.46
2018-12-06T11:11:12.514Z,97.25
2018-12-06T11:12:12.194Z,97.77
2018-12-06T11:13:12.184Z,97.77
2018-12-06T11:14:12.167Z,97.66
2018-12-06T11:15:12.137Z,97.46
2018-12-06T11:16:12.146Z,97.66
2018-12-06T11:17:12.120Z,97.36
2018-12-06T11:18:12.103Z,97.56
2018-12-06T11:19:12.107Z,97.56
2018-12-06T11:20:12.083Z,98.07
2018-12-06T11:21:12.082Z,97.66
2018-12-06T11:22:12.062Z,97.46
2018-12-06T11:23:12.056Z,97.56
2018-12-06T11:25:42.012Z,98.07
2018-12-06T11:26:20.760Z,97.31
2018-12-06T11:27:20.738Z,97.56
2018-12-06T11:28:20.754Z,97.52
2018-12-06T11:29:20.719Z,97.62
2018-12-06T11:30:20.711Z,97.97
2018-12-06T11:33:30.396Z,97.11
2018-12-06T11:34:30.387Z,97.41
2018-12-06T11:35:30.374Z,97.62
2018-12-06T11:36:30.378Z,96.70
2018-12-06T11:37:30.354Z,96.70
2018-12-06T11:40:06.289Z,96.55
2018-12-06T11:40:38.549Z,96.34
2018-12-06T11:41:42.974Z,97.06
2018-12-06T11:42:38.524Z,97.16
2018-12-06T11:43:38.520Z,96.55
2018-12-06T11:44:38.517Z,96.45
2018-12-06T11:45:38.531Z,95.94
2018-12-06T11:46:38.510Z,96.34
2018-12-06T11:47:38.470Z,95.48
2018-12-06T11:48:38.464Z,95.48
2018-12-06T11:49:38.451Z,95.18
2018-12-06T11:50:38.453Z,95.28
2018-12-06T11:51:38.440Z,94.97
2018-12-06T11:52:38.429Z,94.93
2018-12-06T11:53:38.401Z,95.13
2018-12-06T11:54:38.455Z,95.23
2018-12-06T11:55:38.386Z,94.82
2018-12-06T11:58:13.343Z,94.62
2018-12-06T12:01:03.007Z,95.23
2018-12-06T12:02:09.725Z,94.93
2018-12-06T12:03:03.980Z,94.82
2018-12-06T12:04:02.973Z,94.73
2018-12-06T12:05:02.956Z,94.82
2018-12-06T12:07:34.434Z,94.82
2018-12-06T12:08:11.658Z,94.21
2018-12-06T12:09:11.674Z,94.17
2018-12-06T12:10:11.659Z,94.78
2018-12-06T12:11:11.623Z,93.86
2018-12-06T12:12:11.625Z,94.17
2018-12-06T12:13:11.599Z,94.37
2018-12-06T12:14:11.596Z,94.37
2018-12-06T12:15:11.577Z,94.27
2018-12-06T12:16:11.570Z,93.86
2018-12-06T12:17:11.566Z,93.45
2018-12-06T12:18:11.542Z,94.68
2018-12-06T12:19:11.534Z,94.07
2018-12-06T12:20:11.528Z,93.66
2018-12-06T12:21:11.532Z,93.76
2018-12-06T12:22:11.522Z,93.66
2018-12-06T12:23:11.489Z,93.66
2018-12-06T12:24:11.477Z,93.45
2018-12-06T12:25:11.466Z,93.45
2018-12-06T12:26:11.491Z,93.62
2018-12-06T12:27:11.465Z,92.74
2018-12-06T12:28:11.507Z,93.15
2018-12-06T12:29:11.421Z,93.21
2018-12-06T12:30:11.437Z,93.00
2018-12-06T12:31:11.404Z,93.10
2018-12-06T12:32:11.428Z,93.00
2018-12-06T12:33:11.375Z,92.59
2018-12-06T12:34:11.365Z,92.29
2018-12-06T12:35:11.357Z,93.00
2018-12-06T12:36:11.346Z,92.65
2018-12-06T12:37:11.344Z,92.24
2018-12-06T12:38:11.324Z,92.45
2018-12-06T12:39:11.309Z,92.45
2018-12-06T12:40:11.300Z,92.35
2018-12-06T12:41:11.302Z,93.06
2018-12-06T12:42:11.302Z,92.24
2018-12-06T12:43:11.278Z,93.21
2018-12-06T12:44:11.261Z,93.62
2018-12-06T12:45:11.246Z,93.10
2018-12-06T12:46:11.236Z,93.41
2018-12-06T12:47:11.218Z,93.62
2018-12-06T12:48:11.225Z,93.62
2018-12-06T12:49:11.215Z,93.10
2018-12-06T12:50:11.186Z,93.26
2018-12-06T12:51:11.183Z,93.21
2018-12-06T12:52:11.169Z,92.86
2018-12-06T12:53:11.172Z,93.06
2018-12-06T12:56:44.077Z,93.21
2018-12-06T12:57:28.833Z,93.00
2018-12-06T12:58:28.812Z,93.98
2018-12-06T12:59:28.798Z,94.02
2018-12-06T13:00:28.801Z,93.62
2018-12-06T13:01:29.572Z,93.10
2018-12-06T13:03:37.481Z,93.57
2018-12-06T13:04:37.462Z,92.96
2018-12-06T13:05:37.470Z,92.45
2018-12-06T13:06:37.443Z,92.96
2018-12-06T13:07:37.449Z,93.51
2018-12-06T13:08:37.450Z,93.41
2018-12-06T13:09:37.405Z,93.57
2018-12-06T13:10:37.408Z,92.96
2018-12-06T13:13:55.060Z,93.21
2018-12-06T13:16:24.795Z,93.37
2018-12-06T13:17:03.515Z,93.47
2018-12-06T13:18:03.514Z,92.96
2018-12-06T13:19:03.505Z,93.37
2018-12-06T13:21:12.448Z,93.37
2018-12-06T13:22:12.198Z,93.67
2018-12-06T13:23:12.212Z,93.77
2018-12-06T13:24:12.180Z,92.86
2018-12-06T13:25:12.189Z,92.96
2018-12-06T13:26:12.158Z,93.12
2018-12-06T13:27:12.156Z,92.55
2018-12-06T13:28:12.147Z,93.77
2018-12-06T13:29:12.136Z,93.26
2018-12-06T13:32:28.555Z,93.26
2018-12-06T13:33:28.808Z,92.24
2018-12-06T13:35:51.491Z,93.02
2018-12-06T13:36:36.736Z,92.91
2018-12-06T13:41:22.348Z,92.00
2018-12-06T14:39:08.856Z,90.88
2018-12-06T14:39:52.590Z,90.57
2018-12-06T14:40:52.580Z,90.77
2018-12-06T14:41:52.572Z,90.67
2018-12-06T14:42:52.573Z,91.18
2018-12-06T14:43:41.712Z,91.39
2018-12-06T14:44:41.711Z,91.18
2018-12-06T14:45:41.673Z,91.49
2018-12-06T14:46:41.663Z,91.28
2018-12-06T14:47:41.650Z,91.28
2018-12-06T14:48:41.643Z,91.59
2018-12-06T14:52:31.854Z,91.79
2018-12-06T14:52:59.043Z,92.71
2018-12-06T14:53:59.042Z,91.89
2018-12-06T14:54:59.031Z,92.50
2018-12-06T14:55:59.029Z,92.71
2018-12-06T14:59:16.712Z,93.06
2018-12-06T15:00:16.681Z,93.57
2018-12-06T15:01:16.676Z,93.67
2018-12-06T15:02:16.664Z,93.47
2018-12-06T15:05:34.339Z,93.37
2018-12-06T15:06:37.537Z,93.57
2018-12-06T15:09:19.032Z,93.77
2018-12-06T15:09:42.801Z,94.29
2018-12-06T15:10:42.774Z,94.79
2018-12-06T15:11:42.764Z,94.49
2018-12-06T15:12:42.749Z,94.90
2018-12-06T15:13:42.740Z,94.79
2018-12-06T15:14:42.747Z,94.70
2018-12-06T15:15:42.725Z,94.70
2018-12-06T15:16:42.709Z,94.64
2018-12-06T15:17:42.699Z,94.18
2018-12-06T15:18:42.687Z,93.47
2018-12-06T15:19:42.684Z,93.88
2018-12-06T15:20:42.661Z,93.67
2018-12-06T15:21:42.664Z,93.57
2018-12-06T15:25:29.611Z,93.57
2018-12-06T15:26:00.346Z,93.47
2018-12-06T15:27:00.338Z,93.77
2018-12-06T15:28:00.322Z,93.77
2018-12-06T15:29:00.321Z,93.57
2018-12-06T15:30:00.317Z,93.06
2018-12-06T15:31:00.291Z,93.77
2018-12-06T15:32:00.288Z,93.51
2018-12-06T15:33:00.272Z,93.57
2018-12-06T15:34:00.276Z,93.41
2018-12-06T15:35:00.315Z,93.62
2018-12-06T15:36:00.234Z,93.57
2018-12-06T15:37:00.227Z,93.37
2018-12-06T15:38:00.214Z,93.26
2018-12-06T15:40:30.662Z,92.96
